createdAt,value
2022-10-22T00:00:43.960Z,2.13
2022-10-22T00:03:11.368Z,2.83
2022-10-22T00:05:38.142Z,2.03
2022-10-22T00:08:05.006Z,2.10
2022-10-22T00:10:32.157Z,2.50
2022-10-22T00:12:58.825Z,1.97
2022-10-22T00:15:25.820Z,2.13
2022-10-22T00:17:52.840Z,2.23
2022-10-22T00:20:19.809Z,2.30
2022-10-22T00:22:46.673Z,3.33
2022-10-22T00:25:13.589Z,2.30
2022-10-22T00:27:40.676Z,2.33
2022-10-22T00:30:09.370Z,2.03
2022-10-22T00:32:36.156Z,2.07
2022-10-22T00:35:03.325Z,2.00
2022-10-22T00:37:30.510Z,2.27
2022-10-22T00:39:57.190Z,2.53
2022-10-22T00:42:26.668Z,2.10
2022-10-22T00:45:08.628Z,2.00
2022-10-22T00:47:44.643Z,2.27
2022-10-22T00:50:20.362Z,2.27
2022-10-22T00:52:47.114Z,1.80
2022-10-22T00:55:14.914Z,3.07
2022-10-22T00:57:41.776Z,2.63
2022-10-22T01:00:09.235Z,2.30
2022-10-22T01:02:36.282Z,2.00
2022-10-22T01:05:03.847Z,2.20
2022-10-22T01:07:30.769Z,2.30
2022-10-22T01:10:04.863Z,2.20
2022-10-22T01:12:43.061Z,1.70
2022-10-22T01:15:31.236Z,2.13
2022-10-22T01:18:10.543Z,2.17
2022-10-22T01:21:00.832Z,2.47
2022-10-22T01:23:33.908Z,1.93
2022-10-22T01:26:24.944Z,2.33
2022-10-22T01:29:00.616Z,2.33
2022-10-22T01:31:32.447Z,2.23
2022-10-22T01:34:00.472Z,2.80
2022-10-22T01:36:30.388Z,2.20
2022-10-22T01:38:59.193Z,2.23
2022-10-22T01:41:28.859Z,2.10
2022-10-22T01:43:56.140Z,1.90
2022-10-22T01:46:24.802Z,2.30
2022-10-22T01:49:13.633Z,2.20
2022-10-22T01:51:52.836Z,2.43
2022-10-22T01:54:32.689Z,2.00
2022-10-22T01:57:21.034Z,2.37
2022-10-22T02:00:08.660Z,1.97
2022-10-22T02:02:49.449Z,2.00
2022-10-22T02:05:41.089Z,1.87
2022-10-22T02:08:12.239Z,2.00
2022-10-22T02:10:41.137Z,2.00
2022-10-22T02:13:16.432Z,2.13
2022-10-22T02:15:45.449Z,1.90
2022-10-22T02:18:12.939Z,2.60
2022-10-22T02:20:42.252Z,2.23
2022-10-22T02:23:10.008Z,1.97
2022-10-22T02:25:41.014Z,2.40
2022-10-22T02:28:14.820Z,2.20
2022-10-22T02:30:44.160Z,2.37
2022-10-22T02:33:28.588Z,1.57
2022-10-22T02:35:56.237Z,1.90
2022-10-22T02:38:24.011Z,2.00
2022-10-22T02:40:51.045Z,2.50
2022-10-22T02:43:18.919Z,2.20
2022-10-22T02:45:46.694Z,2.30
2022-10-22T02:48:13.521Z,1.97
2022-10-22T02:50:40.225Z,2.20
2022-10-22T02:53:07.238Z,1.90
2022-10-22T02:55:34.021Z,2.33
2022-10-22T02:58:00.954Z,1.93
2022-10-22T03:00:27.865Z,2.13
2022-10-22T03:02:54.713Z,1.90
2022-10-22T03:05:21.558Z,2.40
2022-10-22T03:07:48.395Z,2.07
2022-10-22T03:10:15.087Z,2.80
2022-10-22T03:12:42.183Z,2.03
2022-10-22T03:15:09.161Z,2.07
2022-10-22T03:17:36.035Z,2.27
2022-10-22T03:20:02.728Z,2.10
2022-10-22T03:22:32.264Z,1.93
2022-10-22T03:25:01.070Z,2.20
2022-10-22T03:27:28.704Z,2.30
2022-10-22T03:29:55.847Z,2.10
2022-10-22T03:32:27.927Z,2.20
2022-10-22T03:34:54.716Z,2.00
2022-10-22T03:37:21.705Z,2.40
2022-10-22T03:39:48.477Z,2.20
2022-10-22T03:42:16.287Z,2.23
2022-10-22T03:44:43.502Z,2.73
2022-10-22T03:47:10.426Z,2.10
2022-10-22T03:49:38.057Z,2.23
2022-10-22T03:52:10.026Z,2.00
2022-10-22T03:57:06.439Z,2.00
2022-10-22T03:59:37.467Z,2.60
2022-10-22T04:02:04.714Z,2.10
2022-10-22T04:04:31.791Z,2.33
2022-10-22T04:06:58.529Z,2.47
2022-10-22T04:09:25.364Z,2.43
2022-10-22T04:11:52.074Z,2.20
2022-10-22T04:14:18.919Z,2.13
2022-10-22T04:16:45.667Z,2.40
2022-10-22T04:19:13.457Z,2.00
2022-10-22T04:21:40.209Z,1.80
2022-10-22T04:24:07.024Z,2.33
2022-10-22T04:26:33.761Z,2.37
2022-10-22T04:29:01.039Z,2.80
2022-10-22T04:31:27.980Z,1.80
2022-10-22T04:33:57.360Z,1.40
2022-10-22T04:36:24.745Z,2.20
2022-10-22T04:38:56.933Z,1.73
2022-10-22T04:41:26.582Z,2.30
2022-10-22T04:43:54.708Z,2.37
2022-10-22T04:46:21.638Z,2.10
2022-10-22T04:48:48.514Z,1.80
2022-10-22T04:51:17.771Z,2.30
2022-10-22T04:53:45.069Z,2.50
2022-10-22T04:56:20.722Z,1.70
2022-10-22T04:58:49.358Z,1.93
2022-10-22T05:01:30.471Z,1.90
2022-10-22T05:03:59.541Z,1.90
2022-10-22T05:06:27.507Z,2.10
2022-10-22T05:09:06.146Z,2.13
2022-10-22T05:11:35.610Z,2.17
2022-10-22T05:14:05.033Z,1.40
2022-10-22T05:16:33.181Z,1.70
2022-10-22T05:19:01.785Z,1.67
2022-10-22T05:21:28.740Z,1.97
2022-10-22T05:23:59.903Z,1.77
2022-10-22T05:26:28.356Z,2.20
2022-10-22T05:28:55.170Z,1.83
2022-10-22T05:31:21.940Z,1.87
2022-10-22T05:33:48.685Z,1.90
2022-10-22T05:36:21.254Z,1.90
2022-10-22T05:38:48.200Z,2.53
2022-10-22T05:41:17.723Z,1.60
2022-10-22T05:44:16.961Z,1.50
2022-10-22T05:56:38.775Z,1.87
2022-10-22T05:59:06.793Z,1.53
2022-10-22T06:04:26.431Z,1.63
2022-10-22T06:06:53.570Z,1.97
2022-10-22T06:09:23.040Z,1.80
2022-10-22T06:11:51.239Z,1.90
2022-10-22T06:14:19.700Z,1.90
2022-10-22T06:16:46.536Z,1.70
2022-10-22T06:19:15.292Z,1.53
2022-10-22T06:21:46.704Z,1.53
2022-10-22T06:24:14.658Z,1.80
2022-10-22T06:26:41.840Z,1.83
2022-10-22T06:29:09.174Z,1.77
2022-10-22T06:31:38.926Z,1.90
2022-10-22T06:34:12.532Z,1.70
2022-10-22T06:39:11.618Z,2.30
2022-10-22T06:41:38.347Z,1.90
2022-10-22T06:44:05.301Z,1.77
2022-10-22T06:46:32.413Z,1.80
2022-10-22T06:49:01.552Z,1.57
2022-10-22T06:51:28.971Z,1.87
2022-10-22T06:53:57.107Z,2.10
2022-10-22T06:56:25.853Z,1.83
2022-10-22T06:58:54.720Z,1.30
2022-10-22T07:01:25.641Z,1.50
2022-10-22T07:03:53.012Z,1.40
2022-10-22T07:06:20.696Z,1.70
2022-10-22T07:08:47.610Z,1.37
2022-10-22T07:11:18.558Z,1.33
2022-10-22T07:13:46.211Z,1.77
2022-10-22T07:16:13.862Z,1.93
2022-10-22T07:18:41.983Z,1.30
2022-10-22T07:21:09.545Z,1.70
2022-10-22T07:23:36.952Z,1.40
2022-10-22T07:26:07.281Z,1.90
2022-10-22T07:28:38.176Z,1.43
2022-10-22T07:31:05.031Z,1.63
2022-10-22T07:33:32.222Z,1.60
2022-10-22T07:36:01.317Z,1.50
2022-10-22T07:38:29.164Z,1.60
2022-10-22T07:40:56.327Z,1.67
2022-10-22T07:43:23.465Z,1.40
2022-10-22T07:45:50.321Z,1.30
2022-10-22T07:48:17.536Z,1.63
2022-10-22T07:53:19.330Z,1.53
2022-10-22T07:55:49.235Z,1.63
2022-10-22T07:58:19.647Z,1.30
2022-10-22T08:00:46.840Z,1.40
2022-10-22T08:03:15.283Z,1.50
2022-10-22T08:05:43.896Z,1.93
2022-10-22T08:08:12.178Z,1.53
2022-10-22T08:10:39.056Z,1.20
2022-10-22T08:13:06.913Z,1.40
2022-10-22T08:15:33.832Z,1.70
2022-10-22T08:18:01.187Z,1.30
2022-10-22T08:20:28.543Z,1.63
2022-10-22T08:22:55.856Z,1.60
2022-10-22T08:25:22.576Z,1.50
2022-10-22T08:27:49.324Z,1.50
2022-10-22T08:30:16.360Z,1.67
2022-10-22T08:32:43.389Z,1.30
2022-10-22T08:35:11.999Z,1.43
2022-10-22T08:37:41.137Z,1.50
2022-10-22T08:40:08.634Z,1.20
2022-10-22T08:42:43.707Z,1.70
2022-10-22T08:45:25.286Z,1.40
2022-10-22T08:47:59.341Z,1.53
2022-10-22T08:50:36.048Z,1.50
2022-10-22T08:53:12.689Z,2.03
2022-10-22T08:55:40.089Z,1.50
2022-10-22T08:58:17.619Z,1.77
2022-10-22T09:01:03.236Z,1.60
2022-10-22T09:03:39.383Z,1.47
2022-10-22T09:06:14.807Z,1.33
2022-10-22T09:08:43.928Z,1.70
2022-10-22T09:32:18.059Z,1.90
2022-10-22T09:34:47.084Z,1.80
2022-10-22T09:37:17.299Z,1.50
2022-10-22T09:39:47.362Z,1.47
2022-10-22T09:42:21.676Z,1.77
2022-10-22T09:44:56.372Z,1.57
2022-10-22T09:48:00.500Z,1.80
2022-10-22T09:50:39.274Z,1.57
2022-10-22T09:53:12.954Z,1.53
2022-10-22T09:55:47.108Z,2.20
2022-10-22T09:58:14.672Z,2.03
2022-10-22T10:00:59.138Z,1.57
2022-10-22T10:03:32.381Z,1.73
2022-10-22T10:06:04.945Z,2.07
2022-10-22T10:08:38.300Z,1.87
2022-10-22T10:11:12.818Z,1.70
2022-10-22T10:14:12.629Z,1.63
2022-10-22T10:16:45.297Z,1.63
2022-10-22T10:19:25.321Z,1.97
2022-10-22T10:22:29.093Z,1.70
2022-10-22T10:25:00.780Z,1.83
2022-10-22T10:27:41.442Z,1.77
2022-10-22T10:30:16.018Z,1.27
2022-10-22T10:33:05.001Z,1.30
2022-10-22T10:35:48.933Z,1.70
2022-10-22T10:38:37.581Z,1.63
2022-10-22T10:41:23.804Z,1.60
2022-10-22T10:44:05.939Z,1.60
2022-10-22T10:47:01.193Z,1.40
2022-10-22T10:49:33.540Z,1.63
2022-10-22T10:52:21.342Z,1.67
2022-10-22T10:55:09.681Z,1.60
2022-10-22T10:57:36.742Z,1.50
2022-10-22T11:00:10.273Z,1.53
2022-10-22T11:03:06.088Z,1.97
2022-10-22T11:05:45.176Z,1.40
2022-10-22T11:08:20.245Z,1.53
2022-10-22T11:10:51.002Z,1.50
2022-10-22T11:13:30.078Z,1.57
2022-10-22T11:16:27.536Z,1.30
2022-10-22T11:19:22.998Z,2.10
2022-10-22T11:22:12.214Z,2.00
2022-10-22T11:24:45.067Z,1.47
2022-10-22T11:27:19.228Z,1.43
2022-10-22T11:29:52.800Z,1.67
2022-10-22T11:32:23.941Z,1.70
2022-10-22T11:34:58.455Z,1.50
2022-10-22T11:37:27.455Z,1.33
2022-10-22T11:39:55.711Z,1.53
2022-10-22T11:42:45.470Z,1.40
2022-10-22T11:45:15.513Z,1.60
2022-10-22T11:48:27.800Z,1.63
2022-10-22T11:51:02.548Z,1.33
2022-10-22T11:53:36.022Z,1.73
2022-10-22T11:56:13.196Z,1.40
2022-10-22T11:58:42.949Z,2.00
2022-10-22T12:01:12.693Z,1.17
2022-10-22T12:03:48.564Z,1.60
2022-10-22T12:06:16.008Z,1.33
2022-10-22T12:08:57.500Z,1.53
2022-10-22T12:11:43.336Z,1.43
2022-10-22T12:14:35.615Z,1.20
2022-10-22T12:17:10.385Z,1.30
2022-10-22T12:19:43.670Z,1.53
2022-10-22T12:22:10.563Z,1.40
2022-10-22T12:24:40.821Z,1.53
2022-10-22T12:27:40.716Z,1.47
2022-10-22T12:30:35.010Z,1.37
2022-10-22T12:33:04.461Z,1.90
2022-10-22T12:35:45.324Z,1.63
2022-10-22T12:38:23.540Z,1.43
2022-10-22T12:40:51.881Z,1.80
2022-10-22T12:43:20.645Z,1.67
2022-10-22T12:45:48.795Z,1.30
2022-10-22T12:48:30.966Z,1.50
2022-10-22T12:51:26.266Z,1.87
2022-10-22T12:54:07.478Z,1.20
2022-10-22T12:56:35.586Z,1.40
2022-10-22T12:59:05.503Z,1.37
2022-10-22T13:01:35.071Z,1.17
2022-10-22T13:04:21.854Z,1.33
2022-10-22T13:07:18.233Z,1.30
2022-10-22T13:09:58.041Z,1.10
2022-10-22T13:12:35.722Z,1.30
2022-10-22T13:15:34.777Z,1.50
2022-10-22T13:18:07.018Z,1.40
2022-10-22T13:20:37.468Z,1.20
2022-10-22T13:23:05.654Z,1.50
2022-10-22T13:25:34.424Z,1.00
2022-10-22T13:28:04.112Z,1.80
2022-10-22T13:30:38.881Z,1.10
2022-10-22T13:33:27.714Z,1.10
2022-10-22T13:35:56.226Z,1.17
2022-10-22T13:38:25.899Z,1.23
2022-10-22T13:40:52.661Z,1.10
2022-10-22T13:43:19.885Z,1.53
2022-10-22T13:45:48.200Z,1.27
2022-10-22T13:48:21.921Z,1.80
2022-10-22T13:50:49.840Z,0.90
2022-10-22T13:53:23.189Z,1.53
2022-10-22T13:55:50.601Z,1.33
2022-10-22T13:58:24.270Z,1.40
2022-10-22T14:00:59.500Z,1.43
2022-10-22T14:03:30.816Z,1.10
2022-10-22T14:05:57.923Z,1.13
2022-10-22T14:08:26.145Z,1.30
2022-10-22T14:10:53.083Z,1.10
2022-10-22T14:13:21.989Z,1.20
2022-10-22T14:15:50.650Z,1.10
2022-10-22T14:18:25.446Z,1.23
2022-10-22T14:20:58.391Z,1.20
2022-10-22T14:23:27.975Z,1.43
2022-10-22T14:25:55.615Z,1.23
2022-10-22T14:28:22.505Z,1.03
2022-10-22T14:30:50.134Z,1.60
2022-10-22T14:33:32.416Z,1.07
2022-10-22T14:36:20.465Z,1.40
2022-10-22T14:39:17.208Z,1.73
2022-10-22T14:41:44.226Z,1.30
2022-10-22T14:44:14.652Z,1.40
2022-10-22T14:46:44.301Z,1.60
2022-10-22T14:49:11.893Z,1.10
2022-10-22T14:51:39.008Z,1.27
2022-10-22T14:54:05.880Z,1.40
2022-10-22T14:56:32.624Z,1.30
2022-10-22T14:58:59.527Z,1.30
2022-10-22T15:01:29.372Z,0.90
2022-10-22T15:03:59.810Z,1.60
2022-10-22T15:06:48.575Z,1.43
2022-10-22T15:09:21.854Z,1.70
2022-10-22T15:11:51.523Z,1.23
2022-10-22T15:14:18.594Z,1.60
2022-10-22T15:16:45.980Z,1.33
2022-10-22T15:19:14.251Z,1.00
2022-10-22T15:24:09.446Z,1.40
2022-10-22T15:26:36.189Z,1.07
2022-10-22T15:29:04.299Z,1.50
2022-10-22T15:31:52.514Z,1.50
2022-10-22T15:34:38.203Z,1.67
2022-10-22T15:37:16.467Z,1.10
2022-10-22T15:39:47.671Z,1.30
2022-10-22T15:42:16.246Z,1.27
2022-10-22T15:44:43.279Z,1.33
2022-10-22T15:47:10.144Z,1.50
2022-10-22T15:49:38.655Z,1.30
2022-10-22T15:52:06.353Z,1.37
2022-10-22T15:54:33.649Z,1.37
2022-10-22T15:57:03.611Z,1.60
2022-10-22T15:59:30.894Z,1.40
2022-10-22T16:01:58.456Z,1.37
2022-10-22T16:04:25.670Z,1.17
2022-10-22T16:06:54.393Z,1.33
2022-10-22T16:09:28.140Z,1.67
2022-10-22T16:11:59.778Z,1.10
2022-10-22T16:14:29.210Z,1.80
2022-10-22T16:16:57.458Z,1.60
2022-10-22T16:19:24.987Z,1.47
2022-10-22T16:21:54.136Z,1.47
2022-10-22T16:24:23.071Z,1.60
2022-10-22T16:26:50.330Z,1.63
2022-10-22T16:29:18.249Z,1.87
2022-10-22T16:31:45.760Z,1.83
2022-10-22T16:34:13.599Z,1.77
2022-10-22T16:36:40.588Z,1.90
2022-10-22T16:39:08.905Z,2.50
2022-10-22T16:41:36.664Z,3.50
2022-10-22T16:44:08.538Z,3.20
2022-10-22T16:46:39.006Z,2.50
2022-10-22T16:49:06.866Z,2.17
2022-10-22T16:51:40.834Z,2.10
2022-10-22T16:54:11.494Z,2.00
2022-10-22T16:56:42.156Z,2.40
2022-10-22T16:59:09.145Z,2.60
2022-10-22T17:01:40.596Z,2.10
2022-10-22T17:04:08.833Z,1.80
2022-10-22T17:06:35.847Z,2.37
2022-10-22T17:09:04.245Z,2.30
2022-10-22T17:11:39.171Z,2.37
2022-10-22T17:14:08.662Z,1.70
2022-10-22T17:16:35.546Z,2.10
2022-10-22T17:19:04.928Z,1.87
2022-10-22T17:21:32.593Z,1.73
2022-10-22T17:23:59.532Z,3.10
2022-10-22T17:26:27.166Z,5.07
2022-10-22T17:28:55.165Z,3.47
2022-10-22T17:31:32.759Z,4.03
2022-10-22T17:34:00.906Z,3.50
2022-10-22T17:36:36.332Z,3.37
2022-10-22T17:39:07.664Z,3.73
2022-10-22T17:41:38.258Z,4.80
2022-10-22T17:44:09.828Z,3.33
2022-10-22T17:46:36.891Z,3.40
2022-10-22T17:49:08.110Z,3.37
2022-10-22T17:51:35.268Z,3.47
2022-10-22T17:54:04.704Z,3.03
2022-10-22T17:56:34.361Z,3.50
2022-10-22T17:59:02.066Z,3.00
2022-10-22T18:01:31.750Z,5.67
2022-10-22T18:04:02.878Z,5.33
2022-10-22T18:06:34.779Z,5.23
2022-10-22T18:09:07.094Z,4.13
2022-10-22T18:11:40.510Z,3.80
2022-10-22T18:14:08.425Z,3.87
2022-10-22T18:16:35.774Z,3.60
2022-10-22T18:19:03.606Z,3.23
2022-10-22T18:21:31.513Z,3.07
2022-10-22T18:24:01.494Z,3.30
2022-10-22T18:26:28.410Z,3.30
2022-10-22T18:28:57.502Z,3.40
2022-10-22T18:31:25.860Z,3.57
2022-10-22T18:36:28.316Z,5.30
2022-10-22T18:39:00.625Z,5.03
2022-10-22T18:41:29.092Z,4.50
2022-10-22T18:44:02.386Z,4.23
2022-10-22T18:46:41.010Z,4.13
2022-10-22T18:49:08.837Z,4.30
2022-10-22T18:51:36.094Z,5.00
2022-10-22T18:54:21.395Z,5.77
2022-10-22T18:56:49.598Z,5.10
2022-10-22T18:59:25.395Z,4.50
2022-10-22T19:01:59.637Z,4.40
2022-10-22T19:04:58.366Z,4.43
2022-10-22T19:07:39.203Z,4.47
2022-10-22T19:10:07.459Z,5.37
2022-10-22T19:12:39.497Z,4.23
2022-10-22T19:15:07.623Z,3.97
2022-10-22T19:17:36.357Z,3.53
2022-10-22T19:20:05.774Z,3.60
2022-10-22T19:22:35.048Z,3.60
2022-10-22T19:25:02.108Z,5.50
2022-10-22T19:27:30.416Z,5.30
2022-10-22T19:29:58.121Z,5.37
2022-10-22T19:32:31.009Z,4.57
2022-10-22T19:35:01.356Z,3.67
2022-10-22T19:37:42.957Z,4.73
2022-10-22T19:40:11.990Z,4.70
2022-10-22T19:42:45.252Z,4.27
2022-10-22T19:45:12.465Z,6.37
2022-10-22T19:47:39.317Z,6.27
2022-10-22T19:50:28.280Z,6.10
2022-10-22T19:52:59.843Z,4.73
2022-10-22T19:55:29.042Z,4.03
2022-10-22T19:57:56.121Z,3.70
2022-10-22T20:00:23.228Z,3.47
2022-10-22T20:02:51.088Z,3.60
2022-10-22T20:05:20.869Z,3.40
2022-10-22T20:07:55.804Z,2.90
2022-10-22T20:10:24.911Z,3.73
2022-10-22T20:12:55.513Z,3.47
2022-10-22T20:15:22.673Z,3.83
2022-10-22T20:17:49.739Z,3.80
2022-10-22T20:20:17.086Z,3.90
2022-10-22T20:22:46.223Z,3.40
2022-10-22T20:25:14.425Z,3.93
2022-10-22T20:27:42.569Z,3.27
2022-10-22T20:30:10.480Z,3.13
2022-10-22T20:32:39.274Z,3.57
2022-10-22T20:35:07.736Z,3.30
2022-10-22T20:37:38.026Z,3.23
2022-10-22T20:40:05.485Z,3.67
2022-10-22T20:42:37.076Z,3.10
2022-10-22T20:45:04.471Z,3.23
2022-10-22T20:47:44.302Z,3.50
2022-10-22T20:50:19.262Z,3.63
2022-10-22T20:52:46.343Z,3.60
2022-10-22T20:57:42.082Z,3.40
2022-10-22T21:00:09.756Z,2.90
2022-10-22T21:02:37.492Z,3.00
2022-10-22T21:05:04.686Z,3.60
2022-10-22T21:07:34.091Z,3.70
2022-10-22T21:10:03.992Z,3.47
2022-10-22T21:12:31.168Z,3.57
2022-10-22T21:14:59.857Z,3.47
2022-10-22T21:17:26.975Z,3.93
2022-10-22T21:19:54.031Z,3.17
2022-10-22T21:22:25.134Z,3.53
2022-10-22T21:24:54.425Z,3.20
2022-10-22T21:27:21.688Z,3.37
2022-10-22T21:29:48.835Z,2.97
2022-10-22T21:32:15.798Z,2.97
2022-10-22T21:34:42.997Z,3.50
2022-10-22T21:37:10.012Z,3.10
2022-10-22T21:39:41.206Z,3.07
2022-10-22T21:42:09.433Z,3.30
2022-10-22T21:44:38.513Z,2.97
2022-10-22T21:47:06.767Z,3.17
2022-10-22T21:49:33.550Z,2.67
2022-10-22T21:52:02.847Z,2.70
2022-10-22T21:54:38.266Z,3.20
2022-10-22T21:57:05.514Z,3.83
2022-10-22T21:59:34.257Z,3.30
2022-10-22T22:02:05.666Z,3.17
2022-10-22T22:04:36.731Z,3.17
2022-10-22T22:07:05.116Z,2.40
2022-10-22T22:09:33.868Z,2.70
2022-10-22T22:12:00.884Z,3.07
2022-10-22T22:14:28.014Z,2.90
2022-10-22T22:16:58.286Z,2.80
2022-10-22T22:19:25.843Z,3.20
2022-10-22T22:22:07.895Z,3.20
2022-10-22T22:24:40.411Z,2.80
2022-10-22T22:27:08.232Z,2.67
2022-10-22T22:29:35.271Z,2.83
2022-10-22T22:32:02.940Z,2.67
2022-10-22T22:34:37.490Z,2.93
2022-10-22T22:37:04.566Z,3.03
2022-10-22T22:39:35.089Z,3.23
2022-10-22T22:42:07.724Z,2.87
2022-10-22T22:44:45.224Z,3.10
2022-10-22T22:47:15.711Z,3.23
2022-10-22T22:49:42.906Z,3.27
2022-10-22T22:52:09.836Z,3.30
2022-10-22T22:54:36.669Z,4.60
2022-10-22T22:57:03.894Z,3.17
2022-10-22T22:59:30.836Z,2.90
2022-10-22T23:01:57.794Z,3.20
2022-10-22T23:04:25.346Z,3.10
2022-10-22T23:06:53.552Z,3.10
2022-10-22T23:11:48.306Z,2.93
2022-10-22T23:14:17.097Z,3.70
2022-10-22T23:16:46.703Z,3.07
2022-10-22T23:19:15.979Z,2.63
2022-10-22T23:21:51.663Z,3.20
2022-10-22T23:24:21.925Z,2.67
2022-10-22T23:26:50.511Z,3.00
2022-10-22T23:29:20.374Z,2.73
2022-10-22T23:31:48.529Z,2.67
2022-10-22T23:36:47.048Z,3.10
2022-10-22T23:39:17.103Z,3.20
2022-10-22T23:41:44.122Z,2.90
2022-10-22T23:44:11.650Z,3.03
2022-10-22T23:46:39.319Z,3.33
2022-10-22T23:49:07.097Z,2.80
2022-10-22T23:51:34.014Z,2.77
2022-10-22T23:54:03.705Z,2.60
2022-10-22T23:56:31.167Z,2.93
2022-10-22T23:58:58.453Z,2.77
